sensor_id;sensor_type;location;lat;lon;timestamp;P1;durP1;ratioP1;P2;durP2;ratioP2
3066;SDS011;1544;48.834;9.194;2022-08-19T00:01:06;14.57;;;13.27;;
3066;SDS011;1544;48.834;9.194;2022-08-19T00:03:41;16.13;;;14.73;;
3066;SDS011;1544;48.834;9.194;2022-08-19T00:06:16;14.73;;;13.50;;
3066;SDS011;1544;48.834;9.194;2022-08-19T00:08:54;13.43;;;12.30;;
3066;SDS011;1544;48.834;9.194;2022-08-19T00:11:31;14.30;;;12.97;;
3066;SDS011;1544;48.834;9.194;2022-08-19T00:14:07;14.60;;;13.20;;
3066;SDS011;1544;48.834;9.194;2022-08-19T00:16:45;13.60;;;12.40;;
3066;SDS011;1544;48.834;9.194;2022-08-19T00:19:22;14.50;;;13.10;;
3066;SDS011;1544;48.834;9.194;2022-08-19T00:21:58;15.33;;;13.97;;
3066;SDS011;1544;48.834;9.194;2022-08-19T00:24:33;14.80;;;13.50;;
3066;SDS011;1544;48.834;9.194;2022-08-19T00:27:09;14.30;;;13.00;;
3066;SDS011;1544;48.834;9.194;2022-08-19T00:30:00;13.27;;;12.00;;
3066;SDS011;1544;48.834;9.194;2022-08-19T00:32:37;13.83;;;12.57;;
3066;SDS011;1544;48.834;9.194;2022-08-19T00:35:12;14.23;;;12.93;;
3066;SDS011;1544;48.834;9.194;2022-08-19T00:37:48;15.30;;;13.80;;
3066;SDS011;1544;48.834;9.194;2022-08-19T00:40:24;15.10;;;13.80;;
3066;SDS011;1544;48.834;9.194;2022-08-19T00:43:00;15.10;;;13.60;;
3066;SDS011;1544;48.834;9.194;2022-08-19T00:45:35;13.80;;;12.60;;
3066;SDS011;1544;48.834;9.194;2022-08-19T00:48:10;15.07;;;13.57;;
3066;SDS011;1544;48.834;9.194;2022-08-19T00:50:48;13.63;;;12.40;;
3066;SDS011;1544;48.834;9.194;2022-08-19T00:53:27;13.57;;;12.27;;
3066;SDS011;1544;48.834;9.194;2022-08-19T00:56:04;15.87;;;13.33;;
3066;SDS011;1544;48.834;9.194;2022-08-19T00:58:40;15.10;;;13.60;;
3066;SDS011;1544;48.834;9.194;2022-08-19T01:01:15;14.07;;;12.77;;
3066;SDS011;1544;48.834;9.194;2022-08-19T01:03:51;15.70;;;14.30;;
3066;SDS011;1544;48.834;9.194;2022-08-19T01:06:32;14.83;;;13.43;;
3066;SDS011;1544;48.834;9.194;2022-08-19T01:09:08;16.07;;;14.57;;
3066;SDS011;1544;48.834;9.194;2022-08-19T01:11:44;15.03;;;13.63;;
3066;SDS011;1544;48.834;9.194;2022-08-19T01:14:19;15.20;;;13.70;;
3066;SDS011;1544;48.834;9.194;2022-08-19T01:16:55;15.10;;;13.50;;
3066;SDS011;1544;48.834;9.194;2022-08-19T01:19:33;14.53;;;13.20;;
3066;SDS011;1544;48.834;9.194;2022-08-19T01:25:06;14.93;;;13.63;;
3066;SDS011;1544;48.834;9.194;2022-08-19T01:27:49;15.43;;;13.93;;
3066;SDS011;1544;48.834;9.194;2022-08-19T01:30:28;16.30;;;14.57;;
3066;SDS011;1544;48.834;9.194;2022-08-19T01:33:07;15.40;;;13.90;;
3066;SDS011;1544;48.834;9.194;2022-08-19T01:35:42;14.93;;;13.47;;
3066;SDS011;1544;48.834;9.194;2022-08-19T01:38:22;15.97;;;14.30;;
3066;SDS011;1544;48.834;9.194;2022-08-19T01:41:00;15.90;;;14.40;;
3066;SDS011;1544;48.834;9.194;2022-08-19T01:43:44;16.50;;;14.90;;
3066;SDS011;1544;48.834;9.194;2022-08-19T01:46:39;17.20;;;15.40;;
3066;SDS011;1544;48.834;9.194;2022-08-19T01:49:17;15.43;;;13.83;;
3066;SDS011;1544;48.834;9.194;2022-08-19T01:51:55;15.40;;;13.97;;
3066;SDS011;1544;48.834;9.194;2022-08-19T01:54:30;16.00;;;14.17;;
3066;SDS011;1544;48.834;9.194;2022-08-19T01:57:07;15.80;;;14.17;;
3066;SDS011;1544;48.834;9.194;2022-08-19T01:59:45;16.50;;;14.90;;
3066;SDS011;1544;48.834;9.194;2022-08-19T02:02:21;15.70;;;14.20;;
3066;SDS011;1544;48.834;9.194;2022-08-19T02:04:56;16.60;;;14.90;;
3066;SDS011;1544;48.834;9.194;2022-08-19T02:07:31;17.00;;;15.20;;
3066;SDS011;1544;48.834;9.194;2022-08-19T02:10:08;16.83;;;15.03;;
3066;SDS011;1544;48.834;9.194;2022-08-19T02:12:51;16.23;;;14.63;;
3066;SDS011;1544;48.834;9.194;2022-08-19T02:15:27;18.77;;;16.87;;
3066;SDS011;1544;48.834;9.194;2022-08-19T02:18:02;17.40;;;15.70;;
3066;SDS011;1544;48.834;9.194;2022-08-19T02:20:38;16.80;;;15.03;;
3066;SDS011;1544;48.834;9.194;2022-08-19T02:23:14;17.80;;;14.90;;
3066;SDS011;1544;48.834;9.194;2022-08-19T02:25:51;19.03;;;16.47;;
3066;SDS011;1544;48.834;9.194;2022-08-19T02:28:26;19.40;;;17.37;;
3066;SDS011;1544;48.834;9.194;2022-08-19T02:31:02;19.23;;;17.17;;
3066;SDS011;1544;48.834;9.194;2022-08-19T02:33:38;17.17;;;15.40;;
3066;SDS011;1544;48.834;9.194;2022-08-19T02:36:14;18.23;;;16.30;;
3066;SDS011;1544;48.834;9.194;2022-08-19T02:38:54;19.87;;;17.60;;
3066;SDS011;1544;48.834;9.194;2022-08-19T02:41:30;22.13;;;18.50;;
3066;SDS011;1544;48.834;9.194;2022-08-19T02:44:07;21.27;;;19.07;;
3066;SDS011;1544;48.834;9.194;2022-08-19T02:47:03;19.60;;;17.63;;
3066;SDS011;1544;48.834;9.194;2022-08-19T02:49:38;21.87;;;17.57;;
3066;SDS011;1544;48.834;9.194;2022-08-19T02:52:13;20.93;;;18.47;;
3066;SDS011;1544;48.834;9.194;2022-08-19T02:54:48;23.07;;;19.33;;
3066;SDS011;1544;48.834;9.194;2022-08-19T02:57:24;21.07;;;18.40;;
3066;SDS011;1544;48.834;9.194;2022-08-19T02:59:59;19.87;;;17.17;;
3066;SDS011;1544;48.834;9.194;2022-08-19T03:02:35;21.70;;;19.60;;
3066;SDS011;1544;48.834;9.194;2022-08-19T03:05:10;22.07;;;19.70;;
3066;SDS011;1544;48.834;9.194;2022-08-19T03:07:45;20.93;;;18.93;;
3066;SDS011;1544;48.834;9.194;2022-08-19T03:10:20;21.40;;;19.20;;
3066;SDS011;1544;48.834;9.194;2022-08-19T03:12:55;22.73;;;18.90;;
3066;SDS011;1544;48.834;9.194;2022-08-19T03:15:30;20.80;;;18.60;;
3066;SDS011;1544;48.834;9.194;2022-08-19T03:18:05;23.17;;;20.67;;
3066;SDS011;1544;48.834;9.194;2022-08-19T03:20:43;20.53;;;18.40;;
3066;SDS011;1544;48.834;9.194;2022-08-19T03:23:23;21.57;;;19.27;;
3066;SDS011;1544;48.834;9.194;2022-08-19T03:25:58;22.93;;;20.63;;
3066;SDS011;1544;48.834;9.194;2022-08-19T03:28:50;24.50;;;20.40;;
3066;SDS011;1544;48.834;9.194;2022-08-19T03:31:32;22.93;;;20.60;;
3066;SDS011;1544;48.834;9.194;2022-08-19T03:34:26;24.40;;;21.73;;
3066;SDS011;1544;48.834;9.194;2022-08-19T03:37:04;23.37;;;20.87;;
3066;SDS011;1544;48.834;9.194;2022-08-19T03:39:43;21.63;;;19.63;;
3066;SDS011;1544;48.834;9.194;2022-08-19T03:42:18;21.10;;;18.87;;
3066;SDS011;1544;48.834;9.194;2022-08-19T03:45:13;23.63;;;21.23;;
3066;SDS011;1544;48.834;9.194;2022-08-19T03:47:48;23.57;;;20.37;;
3066;SDS011;1544;48.834;9.194;2022-08-19T03:50:23;22.60;;;20.20;;
3066;SDS011;1544;48.834;9.194;2022-08-19T03:52:58;23.30;;;19.70;;
3066;SDS011;1544;48.834;9.194;2022-08-19T03:55:39;22.07;;;19.83;;
3066;SDS011;1544;48.834;9.194;2022-08-19T03:58:15;25.93;;;22.10;;
3066;SDS011;1544;48.834;9.194;2022-08-19T04:00:50;23.50;;;20.50;;
3066;SDS011;1544;48.834;9.194;2022-08-19T04:03:25;24.23;;;21.63;;
3066;SDS011;1544;48.834;9.194;2022-08-19T04:06:11;25.93;;;23.13;;
3066;SDS011;1544;48.834;9.194;2022-08-19T04:08:51;24.10;;;21.50;;
3066;SDS011;1544;48.834;9.194;2022-08-19T04:11:30;25.13;;;21.30;;
3066;SDS011;1544;48.834;9.194;2022-08-19T04:14:18;25.70;;;22.83;;
3066;SDS011;1544;48.834;9.194;2022-08-19T04:16:57;24.83;;;21.83;;
3066;SDS011;1544;48.834;9.194;2022-08-19T04:19:34;26.50;;;23.70;;
3066;SDS011;1544;48.834;9.194;2022-08-19T04:22:10;25.63;;;23.00;;
3066;SDS011;1544;48.834;9.194;2022-08-19T04:24:45;26.27;;;22.33;;
3066;SDS011;1544;48.834;9.194;2022-08-19T04:27:20;24.53;;;21.93;;
3066;SDS011;1544;48.834;9.194;2022-08-19T04:29:56;28.50;;;23.60;;
3066;SDS011;1544;48.834;9.194;2022-08-19T04:32:31;25.97;;;23.27;;
3066;SDS011;1544;48.834;9.194;2022-08-19T04:35:06;25.40;;;22.57;;
3066;SDS011;1544;48.834;9.194;2022-08-19T04:37:51;25.37;;;22.73;;
3066;SDS011;1544;48.834;9.194;2022-08-19T04:40:26;28.13;;;24.10;;
3066;SDS011;1544;48.834;9.194;2022-08-19T04:43:20;25.67;;;22.70;;
3066;SDS011;1544;48.834;9.194;2022-08-19T04:45:55;28.00;;;25.00;;
3066;SDS011;1544;48.834;9.194;2022-08-19T04:48:34;25.20;;;22.20;;
3066;SDS011;1544;48.834;9.194;2022-08-19T04:51:17;27.70;;;23.53;;
3066;SDS011;1544;48.834;9.194;2022-08-19T04:53:52;27.47;;;24.67;;
3066;SDS011;1544;48.834;9.194;2022-08-19T04:56:27;23.97;;;21.77;;
3066;SDS011;1544;48.834;9.194;2022-08-19T04:59:03;25.90;;;23.27;;
3066;SDS011;1544;48.834;9.194;2022-08-19T05:01:38;27.63;;;23.60;;
3066;SDS011;1544;48.834;9.194;2022-08-19T05:04:13;27.00;;;24.33;;
3066;SDS011;1544;48.834;9.194;2022-08-19T05:06:54;25.77;;;22.10;;
3066;SDS011;1544;48.834;9.194;2022-08-19T05:09:34;24.83;;;22.33;;
3066;SDS011;1544;48.834;9.194;2022-08-19T05:12:29;25.60;;;22.97;;
3066;SDS011;1544;48.834;9.194;2022-08-19T05:15:05;26.77;;;24.07;;
3066;SDS011;1544;48.834;9.194;2022-08-19T05:17:42;24.87;;;22.03;;
3066;SDS011;1544;48.834;9.194;2022-08-19T05:20:38;23.97;;;21.37;;
3066;SDS011;1544;48.834;9.194;2022-08-19T05:23:31;26.73;;;24.00;;
3066;SDS011;1544;48.834;9.194;2022-08-19T05:26:06;23.80;;;21.37;;
3066;SDS011;1544;48.834;9.194;2022-08-19T05:28:43;25.20;;;22.67;;
3066;SDS011;1544;48.834;9.194;2022-08-19T05:31:18;23.80;;;21.50;;
3066;SDS011;1544;48.834;9.194;2022-08-19T05:33:54;26.73;;;23.30;;
3066;SDS011;1544;48.834;9.194;2022-08-19T05:36:34;29.40;;;25.40;;
3066;SDS011;1544;48.834;9.194;2022-08-19T05:39:15;24.93;;;22.43;;
3066;SDS011;1544;48.834;9.194;2022-08-19T05:41:57;25.13;;;22.63;;
3066;SDS011;1544;48.834;9.194;2022-08-19T05:44:36;27.00;;;23.50;;
3066;SDS011;1544;48.834;9.194;2022-08-19T05:47:18;26.23;;;23.43;;
3066;SDS011;1544;48.834;9.194;2022-08-19T05:49:54;29.60;;;24.23;;
3066;SDS011;1544;48.834;9.194;2022-08-19T05:52:29;25.03;;;22.43;;
3066;SDS011;1544;48.834;9.194;2022-08-19T05:55:05;25.67;;;23.07;;
3066;SDS011;1544;48.834;9.194;2022-08-19T05:57:41;24.87;;;22.47;;
3066;SDS011;1544;48.834;9.194;2022-08-19T06:00:16;24.30;;;22.00;;
3066;SDS011;1544;48.834;9.194;2022-08-19T06:02:57;26.73;;;22.73;;
3066;SDS011;1544;48.834;9.194;2022-08-19T06:05:46;26.70;;;23.93;;
3066;SDS011;1544;48.834;9.194;2022-08-19T06:08:25;27.17;;;24.33;;
3066;SDS011;1544;48.834;9.194;2022-08-19T06:11:12;25.53;;;22.80;;
3066;SDS011;1544;48.834;9.194;2022-08-19T06:13:55;25.20;;;22.60;;
3066;SDS011;1544;48.834;9.194;2022-08-19T06:16:34;26.87;;;24.07;;
3066;SDS011;1544;48.834;9.194;2022-08-19T06:19:15;25.97;;;23.20;;
3066;SDS011;1544;48.834;9.194;2022-08-19T06:21:52;26.50;;;23.80;;
3066;SDS011;1544;48.834;9.194;2022-08-19T06:24:28;27.20;;;24.27;;
3066;SDS011;1544;48.834;9.194;2022-08-19T06:27:04;26.07;;;23.30;;
3066;SDS011;1544;48.834;9.194;2022-08-19T06:29:39;26.03;;;23.40;;
3066;SDS011;1544;48.834;9.194;2022-08-19T06:32:15;26.17;;;23.53;;
3066;SDS011;1544;48.834;9.194;2022-08-19T06:34:52;24.93;;;22.00;;
3066;SDS011;1544;48.834;9.194;2022-08-19T06:37:27;25.97;;;23.03;;
3066;SDS011;1544;48.834;9.194;2022-08-19T06:40:03;25.87;;;22.63;;
3066;SDS011;1544;48.834;9.194;2022-08-19T06:42:39;27.00;;;24.30;;
3066;SDS011;1544;48.834;9.194;2022-08-19T06:45:27;25.13;;;22.60;;
3066;SDS011;1544;48.834;9.194;2022-08-19T06:48:09;25.97;;;23.30;;
3066;SDS011;1544;48.834;9.194;2022-08-19T06:50:45;26.43;;;23.73;;
3066;SDS011;1544;48.834;9.194;2022-08-19T06:53:20;24.70;;;22.03;;
3066;SDS011;1544;48.834;9.194;2022-08-19T06:55:56;25.60;;;22.90;;
3066;SDS011;1544;48.834;9.194;2022-08-19T06:58:36;26.53;;;23.57;;
3066;SDS011;1544;48.834;9.194;2022-08-19T07:01:12;28.90;;;23.77;;
3066;SDS011;1544;48.834;9.194;2022-08-19T07:03:48;26.07;;;23.47;;
3066;SDS011;1544;48.834;9.194;2022-08-19T07:06:23;25.93;;;23.07;;
3066;SDS011;1544;48.834;9.194;2022-08-19T07:09:17;26.63;;;22.57;;
3066;SDS011;1544;48.834;9.194;2022-08-19T07:11:55;29.57;;;25.17;;
3066;SDS011;1544;48.834;9.194;2022-08-19T07:14:30;24.87;;;22.30;;
3066;SDS011;1544;48.834;9.194;2022-08-19T07:17:06;24.00;;;21.50;;
3066;SDS011;1544;48.834;9.194;2022-08-19T07:19:45;26.97;;;24.20;;
3066;SDS011;1544;48.834;9.194;2022-08-19T07:22:20;23.67;;;21.27;;
3066;SDS011;1544;48.834;9.194;2022-08-19T07:24:59;23.40;;;21.00;;
3066;SDS011;1544;48.834;9.194;2022-08-19T07:27:37;22.10;;;19.80;;
3066;SDS011;1544;48.834;9.194;2022-08-19T07:30:19;25.17;;;22.40;;
3066;SDS011;1544;48.834;9.194;2022-08-19T07:32:59;23.30;;;21.00;;
3066;SDS011;1544;48.834;9.194;2022-08-19T07:35:37;21.40;;;19.20;;
3066;SDS011;1544;48.834;9.194;2022-08-19T07:38:12;22.50;;;20.30;;
3066;SDS011;1544;48.834;9.194;2022-08-19T07:40:49;21.83;;;19.73;;
3066;SDS011;1544;48.834;9.194;2022-08-19T07:43:25;21.93;;;19.70;;
3066;SDS011;1544;48.834;9.194;2022-08-19T07:46:08;22.37;;;19.60;;
3066;SDS011;1544;48.834;9.194;2022-08-19T07:48:49;22.43;;;20.13;;
3066;SDS011;1544;48.834;9.194;2022-08-19T07:51:26;22.00;;;19.80;;
3066;SDS011;1544;48.834;9.194;2022-08-19T07:54:10;21.03;;;18.90;;
3066;SDS011;1544;48.834;9.194;2022-08-19T07:56:46;21.77;;;18.93;;
3066;SDS011;1544;48.834;9.194;2022-08-19T07:59:21;19.70;;;17.80;;
3066;SDS011;1544;48.834;9.194;2022-08-19T08:01:57;18.50;;;16.90;;
3066;SDS011;1544;48.834;9.194;2022-08-19T08:04:34;20.00;;;18.00;;
3066;SDS011;1544;48.834;9.194;2022-08-19T08:07:28;23.03;;;20.50;;
3066;SDS011;1544;48.834;9.194;2022-08-19T08:10:21;20.37;;;18.27;;
3066;SDS011;1544;48.834;9.194;2022-08-19T08:12:58;21.87;;;19.67;;
3066;SDS011;1544;48.834;9.194;2022-08-19T08:15:44;20.13;;;18.17;;
3066;SDS011;1544;48.834;9.194;2022-08-19T08:18:19;23.20;;;19.00;;
3066;SDS011;1544;48.834;9.194;2022-08-19T08:20:54;20.80;;;18.80;;
3066;SDS011;1544;48.834;9.194;2022-08-19T08:23:31;22.10;;;19.07;;
3066;SDS011;1544;48.834;9.194;2022-08-19T08:26:06;21.67;;;19.37;;
3066;SDS011;1544;48.834;9.194;2022-08-19T08:28:41;20.77;;;18.80;;
3066;SDS011;1544;48.834;9.194;2022-08-19T08:31:22;19.90;;;17.80;;
3066;SDS011;1544;48.834;9.194;2022-08-19T08:33:58;20.43;;;18.33;;
3066;SDS011;1544;48.834;9.194;2022-08-19T08:36:37;20.77;;;18.63;;
3066;SDS011;1544;48.834;9.194;2022-08-19T08:39:16;17.97;;;16.23;;
3066;SDS011;1544;48.834;9.194;2022-08-19T08:45:12;17.33;;;15.77;;
3066;SDS011;1544;48.834;9.194;2022-08-19T08:47:50;20.87;;;18.73;;
3066;SDS011;1544;48.834;9.194;2022-08-19T08:50:39;19.50;;;17.60;;
3066;SDS011;1544;48.834;9.194;2022-08-19T08:53:18;18.87;;;17.03;;
3066;SDS011;1544;48.834;9.194;2022-08-19T08:56:04;19.53;;;17.73;;
3066;SDS011;1544;48.834;9.194;2022-08-19T08:58:53;18.37;;;16.77;;
3066;SDS011;1544;48.834;9.194;2022-08-19T09:01:38;18.63;;;16.90;;
3066;SDS011;1544;48.834;9.194;2022-08-19T09:04:14;20.80;;;18.77;;
3066;SDS011;1544;48.834;9.194;2022-08-19T09:06:54;19.07;;;17.17;;
3066;SDS011;1544;48.834;9.194;2022-08-19T09:10:22;19.07;;;17.33;;
3066;SDS011;1544;48.834;9.194;2022-08-19T09:16:18;20.47;;;18.50;;
3066;SDS011;1544;48.834;9.194;2022-08-19T09:19:03;18.27;;;16.60;;
3066;SDS011;1544;48.834;9.194;2022-08-19T09:21:41;19.67;;;17.87;;
3066;SDS011;1544;48.834;9.194;2022-08-19T09:24:16;18.00;;;16.30;;
3066;SDS011;1544;48.834;9.194;2022-08-19T09:26:51;17.20;;;15.60;;
3066;SDS011;1544;48.834;9.194;2022-08-19T09:29:26;17.50;;;16.00;;
3066;SDS011;1544;48.834;9.194;2022-08-19T09:32:01;19.00;;;17.27;;
3066;SDS011;1544;48.834;9.194;2022-08-19T09:34:36;17.73;;;16.13;;
3066;SDS011;1544;48.834;9.194;2022-08-19T09:37:17;17.17;;;15.60;;
3066;SDS011;1544;48.834;9.194;2022-08-19T09:39:52;17.17;;;15.30;;
3066;SDS011;1544;48.834;9.194;2022-08-19T09:42:27;17.50;;;15.83;;
3066;SDS011;1544;48.834;9.194;2022-08-19T09:45:08;16.13;;;14.83;;
3066;SDS011;1544;48.834;9.194;2022-08-19T09:47:44;16.67;;;15.17;;
3066;SDS011;1544;48.834;9.194;2022-08-19T09:50:21;16.97;;;15.30;;
3066;SDS011;1544;48.834;9.194;2022-08-19T09:52:57;15.50;;;14.20;;
3066;SDS011;1544;48.834;9.194;2022-08-19T09:55:32;16.80;;;15.13;;
3066;SDS011;1544;48.834;9.194;2022-08-19T09:58:07;15.97;;;14.47;;
3066;SDS011;1544;48.834;9.194;2022-08-19T10:00:43;14.70;;;13.40;;
3066;SDS011;1544;48.834;9.194;2022-08-19T10:03:24;14.73;;;13.53;;
3066;SDS011;1544;48.834;9.194;2022-08-19T10:06:04;18.77;;;13.80;;
3066;SDS011;1544;48.834;9.194;2022-08-19T10:08:48;15.30;;;13.80;;
3066;SDS011;1544;48.834;9.194;2022-08-19T10:11:25;14.70;;;13.33;;
3066;SDS011;1544;48.834;9.194;2022-08-19T10:14:13;15.47;;;14.00;;
3066;SDS011;1544;48.834;9.194;2022-08-19T10:16:48;14.30;;;13.10;;
3066;SDS011;1544;48.834;9.194;2022-08-19T10:19:26;13.07;;;11.97;;
3066;SDS011;1544;48.834;9.194;2022-08-19T10:22:04;15.17;;;13.87;;
3066;SDS011;1544;48.834;9.194;2022-08-19T10:24:45;12.20;;;11.20;;
3066;SDS011;1544;48.834;9.194;2022-08-19T10:27:21;14.13;;;12.87;;
3066;SDS011;1544;48.834;9.194;2022-08-19T10:29:56;13.30;;;12.20;;
3066;SDS011;1544;48.834;9.194;2022-08-19T10:32:32;14.03;;;12.73;;
3066;SDS011;1544;48.834;9.194;2022-08-19T10:35:08;13.67;;;12.47;;
3066;SDS011;1544;48.834;9.194;2022-08-19T10:37:43;14.20;;;12.97;;
3066;SDS011;1544;48.834;9.194;2022-08-19T10:40:30;13.00;;;11.90;;
3066;SDS011;1544;48.834;9.194;2022-08-19T10:43:06;12.23;;;11.13;;
3066;SDS011;1544;48.834;9.194;2022-08-19T10:45:40;13.83;;;12.37;;
3066;SDS011;1544;48.834;9.194;2022-08-19T10:48:26;12.70;;;11.53;;
3066;SDS011;1544;48.834;9.194;2022-08-19T10:51:01;11.20;;;10.30;;
3066;SDS011;1544;48.834;9.194;2022-08-19T10:53:57;12.90;;;11.60;;
3066;SDS011;1544;48.834;9.194;2022-08-19T10:56:33;11.47;;;10.50;;
3066;SDS011;1544;48.834;9.194;2022-08-19T10:59:28;9.60;;;8.80;;
3066;SDS011;1544;48.834;9.194;2022-08-19T11:02:09;11.10;;;10.30;;
3066;SDS011;1544;48.834;9.194;2022-08-19T11:04:47;9.60;;;8.70;;
3066;SDS011;1544;48.834;9.194;2022-08-19T11:07:25;9.27;;;8.60;;
3066;SDS011;1544;48.834;9.194;2022-08-19T11:10:00;9.23;;;8.43;;
3066;SDS011;1544;48.834;9.194;2022-08-19T11:12:37;8.57;;;7.97;;
3066;SDS011;1544;48.834;9.194;2022-08-19T11:15:14;8.73;;;8.13;;
3066;SDS011;1544;48.834;9.194;2022-08-19T11:17:50;7.57;;;6.77;;
3066;SDS011;1544;48.834;9.194;2022-08-19T11:20:28;8.90;;;8.20;;
3066;SDS011;1544;48.834;9.194;2022-08-19T11:23:04;8.97;;;8.03;;
3066;SDS011;1544;48.834;9.194;2022-08-19T11:25:40;8.00;;;7.37;;
3066;SDS011;1544;48.834;9.194;2022-08-19T11:28:15;7.73;;;7.23;;
3066;SDS011;1544;48.834;9.194;2022-08-19T11:30:50;9.80;;;8.90;;
3066;SDS011;1544;48.834;9.194;2022-08-19T11:33:25;8.67;;;8.07;;
3066;SDS011;1544;48.834;9.194;2022-08-19T11:36:00;8.57;;;7.80;;
3066;SDS011;1544;48.834;9.194;2022-08-19T11:38:36;8.20;;;7.50;;
3066;SDS011;1544;48.834;9.194;2022-08-19T11:41:11;7.70;;;7.10;;
3066;SDS011;1544;48.834;9.194;2022-08-19T11:43:47;8.67;;;7.97;;
3066;SDS011;1544;48.834;9.194;2022-08-19T11:46:23;8.50;;;8.00;;
3066;SDS011;1544;48.834;9.194;2022-08-19T11:49:00;8.30;;;7.70;;
3066;SDS011;1544;48.834;9.194;2022-08-19T11:51:37;8.13;;;7.30;;
3066;SDS011;1544;48.834;9.194;2022-08-19T11:54:13;8.20;;;7.50;;
3066;SDS011;1544;48.834;9.194;2022-08-19T11:56:50;8.50;;;7.80;;
3066;SDS011;1544;48.834;9.194;2022-08-19T11:59:25;7.90;;;7.30;;
3066;SDS011;1544;48.834;9.194;2022-08-19T12:02:03;8.90;;;8.30;;
3066;SDS011;1544;48.834;9.194;2022-08-19T12:04:38;9.47;;;8.77;;
3066;SDS011;1544;48.834;9.194;2022-08-19T12:07:13;9.90;;;9.00;;
3066;SDS011;1544;48.834;9.194;2022-08-19T12:09:48;8.80;;;8.17;;
3066;SDS011;1544;48.834;9.194;2022-08-19T12:12:23;7.73;;;7.23;;
3066;SDS011;1544;48.834;9.194;2022-08-19T12:14:59;8.20;;;7.60;;
3066;SDS011;1544;48.834;9.194;2022-08-19T12:17:34;8.30;;;7.70;;
3066;SDS011;1544;48.834;9.194;2022-08-19T12:20:09;8.10;;;7.30;;
3066;SDS011;1544;48.834;9.194;2022-08-19T12:22:47;9.50;;;8.73;;
3066;SDS011;1544;48.834;9.194;2022-08-19T12:25:22;9.40;;;8.60;;
3066;SDS011;1544;48.834;9.194;2022-08-19T12:27:57;9.07;;;8.30;;
3066;SDS011;1544;48.834;9.194;2022-08-19T12:30:33;7.80;;;7.30;;
3066;SDS011;1544;48.834;9.194;2022-08-19T12:33:12;8.63;;;8.13;;
3066;SDS011;1544;48.834;9.194;2022-08-19T12:35:48;9.00;;;8.50;;
3066;SDS011;1544;48.834;9.194;2022-08-19T12:38:24;9.53;;;8.73;;
3066;SDS011;1544;48.834;9.194;2022-08-19T12:40:59;8.60;;;8.10;;
3066;SDS011;1544;48.834;9.194;2022-08-19T12:43:35;9.37;;;8.43;;
3066;SDS011;1544;48.834;9.194;2022-08-19T12:46:12;8.33;;;7.83;;
3066;SDS011;1544;48.834;9.194;2022-08-19T12:48:49;8.43;;;7.73;;
3066;SDS011;1544;48.834;9.194;2022-08-19T12:51:28;8.47;;;7.80;;
3066;SDS011;1544;48.834;9.194;2022-08-19T12:54:06;8.10;;;7.60;;
3066;SDS011;1544;48.834;9.194;2022-08-19T12:56:42;8.03;;;7.53;;
3066;SDS011;1544;48.834;9.194;2022-08-19T12:59:18;8.13;;;7.63;;
3066;SDS011;1544;48.834;9.194;2022-08-19T13:01:53;9.07;;;8.50;;
3066;SDS011;1544;48.834;9.194;2022-08-19T13:04:28;10.90;;;10.10;;
3066;SDS011;1544;48.834;9.194;2022-08-19T13:07:03;11.17;;;10.27;;
3066;SDS011;1544;48.834;9.194;2022-08-19T13:09:38;15.07;;;13.70;;
3066;SDS011;1544;48.834;9.194;2022-08-19T13:12:16;16.67;;;15.10;;
3066;SDS011;1544;48.834;9.194;2022-08-19T13:14:54;15.17;;;13.87;;
3066;SDS011;1544;48.834;9.194;2022-08-19T13:17:33;13.83;;;12.67;;
3066;SDS011;1544;48.834;9.194;2022-08-19T13:20:08;15.03;;;13.63;;
3066;SDS011;1544;48.834;9.194;2022-08-19T13:22:45;15.20;;;13.77;;
3066;SDS011;1544;48.834;9.194;2022-08-19T13:25:22;15.53;;;14.00;;
3066;SDS011;1544;48.834;9.194;2022-08-19T13:27:57;16.73;;;15.10;;
3066;SDS011;1544;48.834;9.194;2022-08-19T13:30:33;19.03;;;16.50;;
3066;SDS011;1544;48.834;9.194;2022-08-19T13:33:26;18.63;;;16.83;;
3066;SDS011;1544;48.834;9.194;2022-08-19T13:36:03;19.03;;;17.07;;
3066;SDS011;1544;48.834;9.194;2022-08-19T13:38:41;17.77;;;15.97;;
3066;SDS011;1544;48.834;9.194;2022-08-19T13:41:16;17.07;;;15.53;;
3066;SDS011;1544;48.834;9.194;2022-08-19T13:43:53;17.67;;;15.97;;
3066;SDS011;1544;48.834;9.194;2022-08-19T13:46:29;21.10;;;19.10;;
3066;SDS011;1544;48.834;9.194;2022-08-19T13:49:04;20.73;;;18.83;;
3066;SDS011;1544;48.834;9.194;2022-08-19T13:51:40;19.70;;;17.97;;
3066;SDS011;1544;48.834;9.194;2022-08-19T13:54:16;20.27;;;18.17;;
3066;SDS011;1544;48.834;9.194;2022-08-19T13:56:51;20.03;;;18.13;;
3066;SDS011;1544;48.834;9.194;2022-08-19T13:59:26;21.87;;;19.87;;
3066;SDS011;1544;48.834;9.194;2022-08-19T14:02:01;24.03;;;21.43;;
3066;SDS011;1544;48.834;9.194;2022-08-19T14:04:36;28.10;;;25.30;;
3066;SDS011;1544;48.834;9.194;2022-08-19T14:07:11;27.63;;;24.73;;
3066;SDS011;1544;48.834;9.194;2022-08-19T14:09:47;25.73;;;23.27;;
3066;SDS011;1544;48.834;9.194;2022-08-19T14:12:22;24.40;;;21.90;;
3066;SDS011;1544;48.834;9.194;2022-08-19T14:15:03;27.77;;;24.80;;
3066;SDS011;1544;48.834;9.194;2022-08-19T14:17:41;24.37;;;21.97;;
3066;SDS011;1544;48.834;9.194;2022-08-19T14:20:18;23.00;;;20.37;;
3066;SDS011;1544;48.834;9.194;2022-08-19T14:22:59;26.33;;;23.60;;
3066;SDS011;1544;48.834;9.194;2022-08-19T14:25:34;22.73;;;20.43;;
3066;SDS011;1544;48.834;9.194;2022-08-19T14:28:09;25.73;;;23.13;;
3066;SDS011;1544;48.834;9.194;2022-08-19T14:30:44;23.70;;;21.30;;
3066;SDS011;1544;48.834;9.194;2022-08-19T14:33:19;17.67;;;16.10;;
3066;SDS011;1544;48.834;9.194;2022-08-19T14:36:01;22.07;;;19.90;;
3066;SDS011;1544;48.834;9.194;2022-08-19T14:38:38;26.27;;;22.30;;
3066;SDS011;1544;48.834;9.194;2022-08-19T14:41:14;24.23;;;21.90;;
3066;SDS011;1544;48.834;9.194;2022-08-19T14:43:55;22.53;;;20.43;;
3066;SDS011;1544;48.834;9.194;2022-08-19T14:46:31;20.73;;;18.83;;
3066;SDS011;1544;48.834;9.194;2022-08-19T14:49:06;22.23;;;20.13;;
3066;SDS011;1544;48.834;9.194;2022-08-19T14:51:42;20.27;;;18.27;;
3066;SDS011;1544;48.834;9.194;2022-08-19T14:54:19;22.10;;;20.00;;
3066;SDS011;1544;48.834;9.194;2022-08-19T14:56:58;19.43;;;17.70;;
3066;SDS011;1544;48.834;9.194;2022-08-19T14:59:34;19.63;;;17.77;;
3066;SDS011;1544;48.834;9.194;2022-08-19T15:02:10;17.60;;;15.90;;
3066;SDS011;1544;48.834;9.194;2022-08-19T15:05:05;23.47;;;21.27;;
3066;SDS011;1544;48.834;9.194;2022-08-19T15:07:41;23.07;;;20.73;;
3066;SDS011;1544;48.834;9.194;2022-08-19T15:10:16;20.43;;;18.57;;
3066;SDS011;1544;48.834;9.194;2022-08-19T15:12:51;23.43;;;21.10;;
3066;SDS011;1544;48.834;9.194;2022-08-19T15:15:27;23.73;;;21.43;;
3066;SDS011;1544;48.834;9.194;2022-08-19T15:18:02;21.43;;;19.53;;
3066;SDS011;1544;48.834;9.194;2022-08-19T15:20:38;20.47;;;18.57;;
3066;SDS011;1544;48.834;9.194;2022-08-19T15:23:16;19.23;;;17.50;;
3066;SDS011;1544;48.834;9.194;2022-08-19T15:25:53;20.57;;;18.67;;
3066;SDS011;1544;48.834;9.194;2022-08-19T15:28:30;18.50;;;16.80;;
3066;SDS011;1544;48.834;9.194;2022-08-19T15:31:06;21.23;;;19.23;;
3066;SDS011;1544;48.834;9.194;2022-08-19T15:33:57;18.37;;;16.60;;
3066;SDS011;1544;48.834;9.194;2022-08-19T15:36:32;18.63;;;17.13;;
3066;SDS011;1544;48.834;9.194;2022-08-19T15:39:09;18.90;;;17.20;;
3066;SDS011;1544;48.834;9.194;2022-08-19T15:41:45;17.00;;;15.67;;
3066;SDS011;1544;48.834;9.194;2022-08-19T15:44:20;17.57;;;16.00;;
3066;SDS011;1544;48.834;9.194;2022-08-19T15:46:55;15.53;;;14.33;;
3066;SDS011;1544;48.834;9.194;2022-08-19T15:49:30;20.20;;;18.30;;
3066;SDS011;1544;48.834;9.194;2022-08-19T15:52:06;16.00;;;14.70;;
3066;SDS011;1544;48.834;9.194;2022-08-19T15:54:41;18.10;;;16.50;;
3066;SDS011;1544;48.834;9.194;2022-08-19T15:57:16;18.40;;;16.83;;
3066;SDS011;1544;48.834;9.194;2022-08-19T15:59:56;17.37;;;15.97;;
3066;SDS011;1544;48.834;9.194;2022-08-19T16:03:00;16.60;;;15.10;;
3066;SDS011;1544;48.834;9.194;2022-08-19T16:05:53;16.03;;;14.63;;